メインページ
METAR-TAF:

METAR-TAF

空港 :

The Pas, マニトバ州, カナダ

緯度: 53-58N, 経度: 101-06W, 海抜: 271m

現時点の気象観測

当レポートは1時間12分前の10:00(UTC)に作成
西/南西の風 9kt、最大18ktの突風を伴う
気温 -3°C
湿度 68%
気圧 1000 hPa
視程: 14.5km
晴天

METAR: CYQD 221000Z AUTO 24009G18KT 9SM CLR M03/M08 A2954 RMK SLP020

時間: 05:12 (11:12 UTC)

予報

当レポートは4時間34分前の06:38(UTC)に作成
予報は22日の 07時(UTC)から 22日の 19時(UTC)まで有効
西/南西の風 8kt
視程: 10km
高度22000ftの雲はほとんどない

TAF: CYQD 220638Z 2207/2219 25008KT P6SM FEW220 RMK FCST BASED ON AUTO OBS. NXT FCST BY 221300Z

4,000以上の空港の気象観測と天気予報(METAR報とTAF報)

利用可能な観測所は地図上に黄色い丸と赤い丸で示す。

丸の上にカーソルを重ねると観測所名を参照できる。

次にクリックすると気象観測と天気予報を参照できる。

マップの切り替え:黒色「×」印の緑ボタンをクリックして拡大、「-」印の緑ボタンをクリックして縮小、緑色の三角印をクリックして隣りの地図に切り替え


METAR-TAF: